Time;durP1;ratioP1;P1;durP2;ratioP2;P2;SDS_P1;SDS_P2;PMS_P1;PMS_P2;Temp;Humidity;BMP_temperature;BMP_pressure;BME280_temperature;BME280_humidity;BME280_pressure;Samples;Min_cycle;Max_cycle;Signal;HPM_P1;HPM_P2
2022/11/06 00:01:10;;;;;;;24.80;13.45;;;8.30;89.90;;;;;;5025501;28;20464;-72
2022/11/06 00:03:38;;;;;;;22.35;13.60;;;8.30;91.80;;;;;;4993878;28;21390;-73
2022/11/06 00:09:00;;;;;;;25.35;14.32;;;8.20;93.10;;;;;;4993681;28;20390;-72
2022/11/06 00:11:26;;;;;;;24.67;14.60;;;8.20;94.00;;;;;;4993264;28;20395;-71
2022/11/06 00:13:51;;;;;;;27.40;14.20;;;8.20;94.40;;;;;;4993861;28;20378;-71
2022/11/06 00:16:18;;;;;;;26.93;14.60;;;8.20;94.30;;;;;;4993925;28;20890;-71
2022/11/06 00:18:44;;;;;;;22.95;14.45;;;8.20;95.60;;;;;;5020318;23;20434;-73
2022/11/06 00:21:15;;;;;;;27.35;15.30;;;8.10;96.00;;;;;;5031011;28;20979;-75
2022/11/06 00:23:41;;;;;;;28.83;14.57;;;8.10;97.20;;;;;;5031523;28;20390;-74
2022/11/06 00:26:08;;;;;;;27.60;15.47;;;7.90;98.10;;;;;;5031328;28;20763;-75
2022/11/06 00:28:34;;;;;;;28.40;14.85;;;8.00;99.90;;;;;;5031362;28;20393;-74
2022/11/06 00:31:05;;;;;;;30.77;14.88;;;8.00;99.40;;;;;;5031046;28;20452;-74
2022/11/06 00:33:31;;;;;;;25.15;14.43;;;8.00;99.90;;;;;;5031295;28;20402;-73
2022/11/06 00:35:56;;;;;;;24.15;15.13;;;8.00;98.70;;;;;;5031177;28;20383;-74
2022/11/06 00:38:22;;;;;;;24.95;15.00;;;8.00;99.40;;;;;;5031052;28;20379;-74
2022/11/06 00:40:47;;;;;;;26.97;15.60;;;8.00;99.90;;;;;;5031465;28;20407;-74
2022/11/06 00:43:13;;;;;;;27.03;14.90;;;7.90;99.90;;;;;;5031440;28;20722;-74
2022/11/06 00:45:38;;;;;;;24.15;14.80;;;7.90;99.90;;;;;;5031494;28;20410;-74
2022/11/06 00:48:04;;;;;;;24.65;15.35;;;7.90;99.90;;;;;;5031490;28;20379;-73
2022/11/06 00:50:31;;;;;;;26.33;14.40;;;8.00;99.90;;;;;;5031456;28;20425;-73
2022/11/06 00:52:57;;;;;;;27.98;14.93;;;8.00;99.90;;;;;;5030911;28;20387;-74
2022/11/06 00:55:22;;;;;;;26.13;14.27;;;7.90;99.90;;;;;;5031208;28;20417;-75
2022/11/06 00:57:48;;;;;;;26.73;14.03;;;7.90;99.90;;;;;;5031175;28;20398;-75
2022/11/06 01:00:16;;;;;;;29.50;14.93;;;7.90;99.90;;;;;;5031087;28;20410;-74
2022/11/06 01:02:44;;;;;;;28.75;14.25;;;7.90;99.90;;;;;;5030871;28;20469;-74
2022/11/06 01:05:09;;;;;;;26.20;14.02;;;7.90;99.90;;;;;;5030866;28;20391;-76
2022/11/06 01:07:35;;;;;;;20.60;12.85;;;7.90;99.90;;;;;;5030960;28;20429;-75
2022/11/06 01:10:00;;;;;;;23.33;12.70;;;7.90;99.90;;;;;;5030719;28;20860;-74
2022/11/06 01:12:26;;;;;;;29.52;14.20;;;7.90;99.90;;;;;;5030684;28;20737;-75
2022/11/06 01:14:52;;;;;;;22.00;12.80;;;7.90;99.90;;;;;;5030634;28;20871;-74
2022/11/06 01:17:17;;;;;;;21.63;12.02;;;7.90;99.90;;;;;;5030776;28;20875;-74
2022/11/06 01:19:43;;;;;;;21.75;11.05;;;7.90;99.30;;;;;;5031135;28;20402;-74
2022/11/06 01:22:08;;;;;;;28.75;12.18;;;7.90;97.70;;;;;;5031737;28;20387;-74
2022/11/06 01:24:34;;;;;;;24.23;11.80;;;7.80;99.50;;;;;;5030891;28;20375;-75
2022/11/06 01:26:59;;;;;;;19.00;10.60;;;7.90;99.00;;;;;;5031412;28;20411;-75
2022/11/06 01:29:25;;;;;;;24.60;11.25;;;7.90;98.40;;;;;;5031289;28;20391;-74
2022/11/06 01:31:50;;;;;;;19.43;10.73;;;7.90;98.90;;;;;;5030539;28;20398;-75
2022/11/06 01:34:17;;;;;;;16.13;10.30;;;7.90;99.50;;;;;;5030637;28;20420;-75
2022/11/06 01:36:43;;;;;;;18.80;10.40;;;7.90;99.90;;;;;;5029421;28;20387;-74
2022/11/06 01:39:13;;;;;;;15.38;9.68;;;8.00;99.40;;;;;;5033534;28;20395;-74
2022/11/06 01:41:42;;;;;;;17.58;9.63;;;8.10;97.10;;;;;;5038685;28;20451;-74
2022/11/06 01:44:31;;;;;;;21.13;9.07;;;8.30;93.60;;;;;;5046214;28;20389;-76
2022/11/06 01:46:58;;;;;;;15.32;7.93;;;8.40;90.70;;;;;;5038620;28;20400;-76
2022/11/06 01:49:26;;;;;;;18.13;8.23;;;8.30;90.90;;;;;;5038888;28;20702;-74
2022/11/06 01:52:01;;;;;;;16.17;8.88;;;8.20;90.30;;;;;;5034146;28;20395;-73
2022/11/06 01:54:29;;;;;;;17.77;8.45;;;8.20;91.60;;;;;;5042155;28;20410;-73
2022/11/06 01:56:57;;;;;;;14.00;7.97;;;8.10;93.20;;;;;;5052226;28;20810;-74
2022/11/06 01:59:26;;;;;;;14.70;8.55;;;8.10;93.80;;;;;;5053716;28;20514;-74
2022/11/06 02:01:51;;;;;;;14.00;8.50;;;8.00;93.80;;;;;;5053341;28;20885;-73
2022/11/06 02:04:21;;;;;;;15.73;7.90;;;8.00;93.00;;;;;;5052431;28;20397;-75
2022/11/06 02:06:47;;;;;;;16.00;8.48;;;8.00;93.40;;;;;;5053971;28;20394;-75
2022/11/06 02:09:14;;;;;;;14.75;8.48;;;8.00;93.70;;;;;;5053750;28;20396;-75
2022/11/06 02:11:43;;;;;;;14.02;8.75;;;8.00;93.80;;;;;;5053443;28;20900;-75
2022/11/06 02:14:27;;;;;;;17.08;8.20;;;7.90;94.40;;;;;;5053958;28;20396;-75
2022/11/06 02:17:06;;;;;;;17.00;7.95;;;7.90;94.10;;;;;;5054692;28;20711;-75
2022/11/06 02:19:50;;;;;;;18.33;8.20;;;8.00;94.60;;;;;;5053476;28;20410;-75
2022/11/06 02:22:51;;;;;;;16.75;8.20;;;7.90;95.20;;;;;;5053591;28;20408;-75
2022/11/06 02:25:42;;;;;;;16.08;7.68;;;7.90;96.50;;;;;;5052910;28;20386;-75
2022/11/06 02:28:36;;;;;;;14.57;7.88;;;8.00;95.50;;;;;;5053008;28;20438;-74
2022/11/06 02:31:08;;;;;;;15.55;7.20;;;8.10;94.30;;;;;;5050976;28;20900;-73
2022/11/06 02:33:40;;;;;;;14.25;7.50;;;8.20;93.80;;;;;;5053122;28;20385;-73
2022/11/06 02:36:14;;;;;;;19.48;7.70;;;8.30;91.60;;;;;;5052941;28;20749;-75
2022/11/06 02:38:47;;;;;;;11.63;6.53;;;8.40;88.60;;;;;;5052756;28;20389;-73
2022/11/06 02:41:29;;;;;;;12.80;6.97;;;8.50;87.40;;;;;;5051303;28;20432;-75
2022/11/06 02:43:56;;;;;;;12.27;6.70;;;8.50;86.20;;;;;;5052735;28;20416;-74
2022/11/06 02:46:34;;;;;;;19.42;7.05;;;8.60;83.10;;;;;;5052731;28;20404;-74
2022/11/06 02:49:31;;;;;;;13.63;6.70;;;8.60;82.60;;;;;;5051622;28;20381;-73
2022/11/06 02:52:03;;;;;;;16.60;7.05;;;8.50;83.00;;;;;;5053018;28;20385;-74
2022/11/06 02:54:32;;;;;;;15.88;6.80;;;8.60;82.70;;;;;;5055082;28;20758;-74
2022/11/06 02:57:02;;;;;;;12.70;7.10;;;8.50;82.30;;;;;;5055447;28;20385;-74
2022/11/06 02:59:39;;;;;;;12.10;6.30;;;8.50;82.60;;;;;;5052885;28;20838;-74
2022/11/06 03:02:09;;;;;;;17.50;6.68;;;8.40;83.00;;;;;;5052107;28;20447;-73
2022/11/06 03:04:57;;;;;;;15.20;7.03;;;8.40;84.60;;;;;;5052538;28;20376;-75
2022/11/06 03:07:43;;;;;;;12.65;6.10;;;8.30;84.60;;;;;;5050377;28;20377;-73
2022/11/06 03:10:10;;;;;;;12.20;6.20;;;8.20;86.30;;;;;;5052500;28;20492;-75
2022/11/06 03:12:38;;;;;;;12.40;6.05;;;8.20;87.50;;;;;;5052148;28;20401;-74
2022/11/06 03:15:10;;;;;;;13.15;6.90;;;8.20;87.00;;;;;;5052109;28;20461;-73
2022/11/06 03:17:54;;;;;;;12.35;6.70;;;8.20;87.80;;;;;;5052133;28;20386;-74
2022/11/06 03:20:33;;;;;;;17.47;6.43;;;8.10;88.40;;;;;;5052191;28;20413;-74
2022/11/06 03:23:20;;;;;;;16.75;6.90;;;8.10;88.50;;;;;;5051824;28;20378;-74
2022/11/06 03:25:52;;;;;;;14.35;6.32;;;8.10;87.10;;;;;;5052096;28;20395;-73
2022/11/06 03:28:33;;;;;;;11.32;5.82;;;8.20;86.40;;;;;;5051912;28;20409;-74
2022/11/06 03:31:03;;;;;;;13.27;6.03;;;8.10;87.30;;;;;;5050579;28;20428;-73
2022/11/06 03:33:32;;;;;;;11.15;5.93;;;8.00;87.40;;;;;;5052201;28;20445;-74
2022/11/06 03:36:07;;;;;;;9.85;5.60;;;8.00;88.60;;;;;;5050785;28;20439;-74
2022/11/06 03:38:39;;;;;;;11.90;6.65;;;8.00;88.80;;;;;;5052045;28;20476;-74
2022/11/06 03:41:31;;;;;;;13.82;6.15;;;7.90;89.90;;;;;;5052410;28;20397;-74
2022/11/06 03:43:59;;;;;;;12.32;6.60;;;7.90;91.70;;;;;;5043901;28;20386;-74
2022/11/06 03:46:27;;;;;;;12.88;6.60;;;7.90;91.50;;;;;;5052370;28;20750;-74
2022/11/06 03:48:59;;;;;;;13.00;5.80;;;7.80;92.70;;;;;;5051778;28;20373;-75
2022/11/06 03:52:10;;;;;;;18.45;7.00;;;7.90;91.40;;;;;;5052431;28;20378;-72
2022/11/06 03:54:45;;;;;;;11.73;5.38;;;7.90;92.10;;;;;;5048406;28;20400;-73
2022/11/06 03:57:17;;;;;;;13.02;5.70;;;8.00;88.40;;;;;;5051479;28;20381;-73
2022/11/06 03:59:48;;;;;;;14.68;6.70;;;8.10;87.40;;;;;;5051274;28;20392;-74
2022/11/06 04:02:16;;;;;;;13.02;6.45;;;8.10;88.00;;;;;;5049624;28;20820;-75
2022/11/06 04:04:51;;;;;;;16.70;6.45;;;8.10;87.60;;;;;;5051649;28;20408;-74
2022/11/06 04:07:21;;;;;;;15.90;5.80;;;8.10;86.90;;;;;;5051316;28;20377;-74
2022/11/06 04:15:29;;;;;;;18.10;6.57;;;8.00;89.10;;;;;;5051111;28;20403;-74
2022/11/06 04:17:55;;;;;;;8.15;5.53;;;8.00;89.70;;;;;;5050881;28;20439;-73
2022/11/06 04:23:24;;;;;;;11.98;5.97;;;8.00;89.50;;;;;;5051187;28;20389;-75
2022/11/06 04:29:28;;;;;;;9.50;6.20;;;8.00;89.00;;;;;;5051320;28;20447;-74
2022/11/06 04:31:53;;;;;;;13.65;6.30;;;7.90;90.20;;;;;;4989236;28;20447;-73
2022/11/06 04:34:54;;;;;;;12.13;5.83;;;7.90;90.80;;;;;;4989202;28;20391;-73
2022/11/06 04:37:21;;;;;;;14.18;6.13;;;7.90;90.10;;;;;;4992797;28;20389;-74
2022/11/06 04:40:04;;;;;;;13.75;6.57;;;7.90;90.20;;;;;;5050820;28;20401;-74
2022/11/06 04:43:04;;;;;;;13.90;5.70;;;7.90;90.80;;;;;;5051045;28;20384;-74
2022/11/06 04:45:40;;;;;;;11.60;5.70;;;7.90;90.80;;;;;;5052214;28;20432;-74
2022/11/06 04:48:07;;;;;;;12.73;6.20;;;7.80;91.20;;;;;;5055727;28;20424;-74
2022/11/06 04:50:38;;;;;;;13.88;5.18;;;7.80;92.90;;;;;;5056554;28;20410;-74
2022/11/06 04:53:08;;;;;;;11.48;6.10;;;7.80;91.50;;;;;;5056301;28;20397;-74
2022/11/06 04:55:45;;;;;;;12.23;5.60;;;7.90;92.80;;;;;;5055891;28;20392;-74
2022/11/06 04:58:10;;;;;;;12.27;5.77;;;7.90;91.00;;;;;;5052005;28;20400;-75
2022/11/06 05:00:40;;;;;;;15.60;6.00;;;7.90;91.40;;;;;;5051834;28;20402;-75
2022/11/06 05:03:06;;;;;;;12.65;5.72;;;7.80;90.80;;;;;;5051302;28;20405;-75
2022/11/06 05:05:31;;;;;;;11.88;5.60;;;7.90;91.00;;;;;;5051506;28;20413;-75
2022/11/06 05:07:57;;;;;;;13.00;5.90;;;7.90;90.90;;;;;;5051284;28;20381;-75
2022/11/06 05:10:22;;;;;;;9.68;4.82;;;7.90;91.10;;;;;;5051595;28;20463;-75
2022/11/06 05:12:48;;;;;;;14.67;5.50;;;7.90;91.20;;;;;;5052521;28;20866;-74
2022/11/06 05:15:14;;;;;;;12.33;5.43;;;7.90;91.30;;;;;;5055232;28;20377;-75
2022/11/06 05:17:39;;;;;;;11.90;4.93;;;7.90;91.80;;;;;;5055728;28;20381;-74
2022/11/06 05:20:05;;;;;;;13.87;5.03;;;7.90;92.30;;;;;;5054945;28;20476;-75
2022/11/06 05:25:15;;;;;;;11.40;5.28;;;7.90;92.60;;;;;;5055801;28;20381;-75
2022/11/06 05:27:40;;;;;;;14.40;5.17;;;7.90;91.90;;;;;;5055507;28;20384;-74
2022/11/06 05:30:07;;;;;;;10.83;4.30;;;7.90;90.50;;;;;;5055970;28;20388;-74
2022/11/06 05:32:32;;;;;;;8.90;4.93;;;7.90;92.10;;;;;;5055823;28;20473;-75
2022/11/06 05:34:58;;;;;;;11.80;4.80;;;7.90;92.20;;;;;;5055812;28;20980;-73
2022/11/06 05:37:23;;;;;;;12.45;4.95;;;7.90;91.80;;;;;;5055680;28;20745;-74
2022/11/06 05:39:49;;;;;;;6.90;3.92;;;7.90;91.30;;;;;;5054801;28;20519;-74
2022/11/06 05:42:14;;;;;;;12.47;5.00;;;7.90;91.70;;;;;;5055404;28;20385;-74
2022/11/06 05:44:40;;;;;;;14.90;4.50;;;8.00;91.30;;;;;;5055497;28;20816;-75
2022/11/06 05:47:05;;;;;;;11.40;4.60;;;7.90;90.70;;;;;;5054258;28;20905;-75
2022/11/06 05:49:31;;;;;;;8.70;4.00;;;8.00;89.60;;;;;;5055430;28;20384;-75
2022/11/06 05:51:57;;;;;;;10.37;4.60;;;8.00;89.50;;;;;;5055126;28;20385;-75
2022/11/06 05:54:22;;;;;;;13.93;5.00;;;8.10;87.90;;;;;;5054338;28;20382;-76
2022/11/06 05:56:48;;;;;;;8.90;4.30;;;8.00;89.10;;;;;;5053945;28;20389;-75
2022/11/06 05:59:13;;;;;;;11.20;4.20;;;8.00;89.90;;;;;;5053907;28;20385;-74
2022/11/06 06:01:39;;;;;;;13.40;5.30;;;8.00;89.90;;;;;;5053911;28;20781;-75
2022/11/06 06:04:04;;;;;;;11.60;5.17;;;8.00;89.00;;;;;;5052810;28;20393;-74
2022/11/06 06:06:30;;;;;;;12.87;4.83;;;8.00;89.90;;;;;;5053443;28;20435;-74
2022/11/06 06:08:55;;;;;;;12.53;4.33;;;8.00;90.80;;;;;;5053657;28;20393;-75
2022/11/06 06:11:21;;;;;;;12.80;4.70;;;8.00;89.70;;;;;;5053220;28;20435;-74
2022/11/06 06:13:47;;;;;;;11.97;5.07;;;8.10;89.50;;;;;;5053920;28;20377;-74
2022/11/06 06:16:12;;;;;;;9.87;4.83;;;8.10;88.20;;;;;;5054019;28;20491;-75
2022/11/06 06:18:38;;;;;;;8.10;4.20;;;8.10;89.40;;;;;;5054819;28;20424;-74
2022/11/06 06:21:04;;;;;;;12.33;4.53;;;8.10;88.90;;;;;;5054453;28;20405;-74
2022/11/06 06:23:29;;;;;;;13.10;4.80;;;8.10;88.20;;;;;;5053439;28;20385;-74
2022/11/06 06:25:56;;;;;;;12.43;4.77;;;8.10;87.20;;;;;;5055351;28;20393;-74
2022/11/06 06:28:22;;;;;;;11.25;4.40;;;8.10;87.70;;;;;;5053549;28;20443;-74
2022/11/06 06:30:47;;;;;;;13.20;4.13;;;8.10;87.50;;;;;;5053218;28;20389;-74
2022/11/06 06:33:13;;;;;;;10.47;4.70;;;8.10;86.70;;;;;;5053249;28;20401;-74
2022/11/06 06:35:38;;;;;;;11.27;5.50;;;8.10;88.40;;;;;;5053824;28;20416;-74
2022/11/06 06:38:04;;;;;;;13.80;4.53;;;8.10;87.40;;;;;;5053402;28;20411;-74
2022/11/06 06:40:29;;;;;;;9.33;4.73;;;8.00;88.60;;;;;;5053253;28;20397;-74
2022/11/06 06:42:56;;;;;;;15.70;4.40;;;8.10;87.20;;;;;;5052822;28;20396;-74
2022/11/06 06:45:22;;;;;;;13.90;4.87;;;8.10;86.90;;;;;;5053181;28;20381;-74
2022/11/06 06:47:48;;;;;;;8.15;4.70;;;8.10;86.50;;;;;;5053169;28;20532;-73
2022/11/06 06:50:14;;;;;;;10.47;4.50;;;8.10;87.70;;;;;;5053432;28;20386;-74
2022/11/06 06:52:39;;;;;;;11.13;4.50;;;8.20;87.20;;;;;;5052763;28;20394;-74
2022/11/06 06:55:05;;;;;;;12.97;4.77;;;8.20;86.70;;;;;;5052998;28;20664;-74
2022/11/06 06:57:31;;;;;;;10.93;4.60;;;8.20;87.20;;;;;;5053446;28;20404;-74
2022/11/06 06:59:57;;;;;;;10.68;4.57;;;8.20;87.00;;;;;;5053301;28;20463;-75
2022/11/06 07:02:22;;;;;;;14.32;4.85;;;8.30;87.10;;;;;;5052508;28;20386;-75
2022/11/06 07:04:48;;;;;;;11.85;4.40;;;8.30;85.90;;;;;;5052512;28;20385;-75
2022/11/06 07:07:13;;;;;;;11.07;5.20;;;8.40;84.50;;;;;;5052209;28;20438;-75
2022/11/06 07:09:39;;;;;;;12.90;4.68;;;8.40;84.00;;;;;;5052747;28;20381;-75
2022/11/06 07:12:04;;;;;;;12.47;4.47;;;8.40;85.50;;;;;;5052253;28;20738;-73
2022/11/06 07:14:30;;;;;;;11.87;4.73;;;8.40;85.00;;;;;;5052306;28;20389;-74
2022/11/06 07:16:55;;;;;;;13.57;4.30;;;8.50;83.50;;;;;;5051084;28;20817;-74
2022/11/06 07:19:21;;;;;;;8.77;4.37;;;8.50;82.80;;;;;;5050789;28;20427;-73
2022/11/06 07:21:50;;;;;;;9.97;4.30;;;8.60;82.80;;;;;;5052040;28;20908;-73
2022/11/06 07:24:17;;;;;;;9.75;4.10;;;8.60;82.40;;;;;;5052200;28;20385;-74
2022/11/06 07:26:42;;;;;;;12.07;4.32;;;8.70;80.00;;;;;;5052252;28;20476;-74
2022/11/06 07:29:08;;;;;;;15.03;4.20;;;8.80;78.70;;;;;;5052292;28;20417;-74
2022/11/06 07:31:33;;;;;;;9.93;4.13;;;8.90;77.70;;;;;;5052026;28;20862;-73
2022/11/06 07:33:59;;;;;;;16.13;4.10;;;8.90;77.30;;;;;;5051898;28;20389;-75
2022/11/06 07:36:24;;;;;;;8.23;4.20;;;9.00;77.30;;;;;;5051100;28;20889;-75
2022/11/06 07:38:50;;;;;;;12.67;4.33;;;9.00;75.80;;;;;;5051483;28;20893;-75
2022/11/06 07:41:15;;;;;;;16.80;4.50;;;9.10;75.10;;;;;;5051539;28;20766;-75
2022/11/06 07:43:42;;;;;;;12.00;4.40;;;9.20;74.20;;;;;;5051750;28;20393;-75
2022/11/06 07:46:10;;;;;;;11.75;5.18;;;9.20;72.40;;;;;;5050676;28;20381;-75
2022/11/06 07:48:36;;;;;;;8.00;4.30;;;9.40;72.90;;;;;;5051821;28;20757;-76
2022/11/06 07:51:03;;;;;;;11.20;4.53;;;9.40;70.00;;;;;;5051736;28;20393;-74
2022/11/06 07:53:29;;;;;;;12.50;4.10;;;9.60;69.10;;;;;;5052100;28;20407;-74
2022/11/06 07:55:56;;;;;;;11.52;3.75;;;9.60;69.70;;;;;;5050191;28;20480;-74
2022/11/06 07:58:23;;;;;;;10.48;3.55;;;9.80;66.50;;;;;;5051536;28;20390;-75
2022/11/06 08:00:54;;;;;;;7.70;3.60;;;9.90;66.20;;;;;;5051448;28;20449;-74
2022/11/06 08:03:21;;;;;;;10.88;3.80;;;10.00;63.30;;;;;;5051375;28;20389;-74
2022/11/06 08:05:46;;;;;;;12.35;3.63;;;10.10;61.50;;;;;;5051735;28;20413;-74
2022/11/06 08:08:12;;;;;;;12.80;4.20;;;10.20;60.90;;;;;;5051258;28;20413;-74
2022/11/06 08:10:39;;;;;;;9.40;4.30;;;10.30;60.50;;;;;;5051611;28;20385;-74
2022/11/06 08:13:06;;;;;;;9.30;3.55;;;10.30;60.40;;;;;;5051690;28;20377;-74
2022/11/06 08:15:32;;;;;;;10.02;3.95;;;10.30;60.30;;;;;;5052854;28;20393;-74
2022/11/06 08:17:58;;;;;;;10.15;3.70;;;10.20;62.10;;;;;;5055589;28;20480;-74
2022/11/06 08:20:24;;;;;;;6.97;3.73;;;10.10;62.40;;;;;;5052655;28;20500;-74
2022/11/06 08:22:50;;;;;;;10.67;3.90;;;10.00;63.80;;;;;;5051052;28;20416;-74
2022/11/06 08:25:15;;;;;;;13.47;4.10;;;10.50;62.00;;;;;;5051605;28;20397;-74
2022/11/06 08:27:41;;;;;;;10.60;3.70;;;11.00;54.90;;;;;;5050898;28;20399;-74
2022/11/06 08:30:07;;;;;;;11.63;3.80;;;11.10;53.60;;;;;;5050978;28;20385;-74
2022/11/06 08:32:32;;;;;;;11.52;4.13;;;11.10;54.40;;;;;;5050350;28;20381;-74
2022/11/06 08:34:58;;;;;;;13.20;3.80;;;11.10;53.80;;;;;;5050806;28;20381;-74
2022/11/06 08:37:23;;;;;;;9.53;4.00;;;11.20;53.30;;;;;;5050907;28;20812;-74
2022/11/06 08:39:49;;;;;;;9.13;3.90;;;11.30;53.10;;;;;;5042449;28;20387;-76
2022/11/06 08:42:15;;;;;;;12.30;3.50;;;11.40;52.80;;;;;;5043796;28;20550;-74
2022/11/06 08:44:41;;;;;;;9.95;3.80;;;11.70;52.00;;;;;;5050265;28;20421;-73
2022/11/06 08:47:07;;;;;;;12.23;3.70;;;11.80;50.30;;;;;;5051136;28;20382;-74
2022/11/06 08:49:33;;;;;;;7.35;3.40;;;11.90;49.60;;;;;;5051143;28;20587;-75
2022/11/06 08:51:58;;;;;;;10.47;3.60;;;12.00;47.90;;;;;;5051007;28;20484;-75
2022/11/06 08:54:24;;;;;;;8.90;3.70;;;12.00;48.60;;;;;;5051387;28;20402;-75
2022/11/06 08:56:49;;;;;;;9.70;3.72;;;11.90;48.90;;;;;;5032027;28;20848;-75
2022/11/06 08:59:15;;;;;;;11.67;3.60;;;11.90;48.70;;;;;;5032008;28;20445;-75
2022/11/06 09:01:40;;;;;;;8.27;3.90;;;11.90;49.00;;;;;;5031859;28;20403;-74
2022/11/06 09:04:06;;;;;;;12.80;3.40;;;11.90;47.20;;;;;;5031652;28;20795;-74
2022/11/06 09:06:32;;;;;;;11.90;3.77;;;11.90;48.00;;;;;;5031539;28;20505;-75
2022/11/06 09:08:58;;;;;;;7.97;3.27;;;12.10;47.40;;;;;;5030907;28;20884;-75
2022/11/06 09:11:23;;;;;;;10.45;3.78;;;12.00;47.10;;;;;;5048456;28;20401;-76
2022/11/06 09:13:49;;;;;;;13.33;3.87;;;12.20;46.50;;;;;;5033197;28;20444;-75
2022/11/06 09:16:15;;;;;;;8.93;3.17;;;12.30;45.70;;;;;;5030949;28;20896;-75
2022/11/06 09:18:41;;;;;;;9.60;3.40;;;12.40;44.90;;;;;;5030827;28;20513;-74
2022/11/06 09:21:06;;;;;;;9.40;3.60;;;12.50;45.70;;;;;;5030685;28;20472;-75
2022/11/06 09:23:32;;;;;;;13.47;3.50;;;12.60;43.80;;;;;;5030962;28;20383;-74
2022/11/06 09:25:57;;;;;;;12.43;4.00;;;12.60;44.80;;;;;;5033608;28;20484;-74
2022/11/06 09:28:23;;;;;;;8.10;3.20;;;12.60;44.30;;;;;;5050771;28;20732;-74
2022/11/06 09:30:49;;;;;;;9.77;3.60;;;12.70;43.70;;;;;;5031526;28;20398;-74
2022/11/06 09:33:14;;;;;;;9.38;3.35;;;12.70;43.30;;;;;;5049648;28;20922;-74
2022/11/06 09:35:40;;;;;;;9.43;3.67;;;12.70;43.10;;;;;;5050996;28;20385;-75
2022/11/06 09:38:09;;;;;;;9.43;3.75;;;12.60;43.10;;;;;;5050964;28;20424;-76
2022/11/06 09:40:45;;;;;;;6.10;3.13;;;12.60;43.80;;;;;;5051155;28;20500;-74
2022/11/06 09:43:19;;;;;;;10.45;3.25;;;12.60;43.70;;;;;;5050734;28;20377;-75
2022/11/06 09:45:46;;;;;;;10.52;3.55;;;12.50;44.20;;;;;;5051679;28;20413;-75
2022/11/06 09:48:24;;;;;;;8.23;3.20;;;12.40;44.40;;;;;;5051466;28;20386;-75
2022/11/06 09:50:57;;;;;;;10.35;3.25;;;12.50;43.50;;;;;;5053412;28;20389;-74
2022/11/06 09:53:33;;;;;;;7.40;3.33;;;12.40;42.90;;;;;;5041584;28;20841;-74
2022/11/06 09:56:01;;;;;;;9.52;3.30;;;12.40;42.90;;;;;;5032531;28;20387;-75
2022/11/06 09:58:35;;;;;;;9.88;3.47;;;12.50;43.40;;;;;;5034100;28;20419;-73
2022/11/06 10:01:27;;;;;;;7.13;3.47;;;12.60;42.90;;;;;;5041838;28;20407;-74
2022/11/06 10:03:59;;;;;;;7.30;3.30;;;12.80;43.00;;;;;;4913803;28;840285;-73
2022/11/06 10:06:27;;;;;;;7.93;3.65;;;12.90;42.00;;;;;;5027634;28;20395;-74
2022/11/06 10:09:01;;;;;;;12.95;3.60;;;13.10;41.90;;;;;;5026395;28;20396;-74
2022/11/06 10:11:48;;;;;;;8.15;3.42;;;13.10;41.20;;;;;;5029447;28;20427;-75
2022/11/06 10:14:27;;;;;;;11.48;3.35;;;13.10;40.10;;;;;;5029860;28;20460;-74
2022/11/06 10:17:05;;;;;;;11.80;3.70;;;13.20;39.70;;;;;;5026848;28;20443;-76
2022/11/06 10:19:54;;;;;;;8.95;3.05;;;13.20;39.60;;;;;;5022075;28;20442;-75
2022/11/06 10:22:30;;;;;;;8.45;3.10;;;13.40;38.40;;;;;;5020896;28;20467;-75
2022/11/06 10:25:08;;;;;;;8.93;3.45;;;13.40;38.50;;;;;;5032869;28;20397;-75
2022/11/06 10:27:39;;;;;;;11.73;3.50;;;13.50;38.90;;;;;;5009609;28;20398;-75
2022/11/06 10:30:14;;;;;;;8.10;3.67;;;13.40;38.20;;;;;;5022338;28;20389;-75
2022/11/06 10:32:45;;;;;;;11.93;4.32;;;13.40;38.70;;;;;;5027506;28;20448;-75
2022/11/06 10:35:21;;;;;;;8.30;3.00;;;13.30;38.80;;;;;;5023654;28;20380;-75
2022/11/06 10:38:12;;;;;;;10.02;3.80;;;13.40;38.30;;;;;;5022550;28;20377;-75
2022/11/06 10:40:41;;;;;;;9.52;3.35;;;13.30;39.00;;;;;;5020665;28;20435;-75
2022/11/06 10:43:15;;;;;;;12.30;3.45;;;13.40;37.60;;;;;;5020478;28;20479;-75
2022/11/06 10:45:46;;;;;;;14.60;3.63;;;13.40;38.10;;;;;;5019129;28;20385;-75
2022/11/06 10:48:31;;;;;;;11.32;3.90;;;13.40;37.90;;;;;;5019270;28;20427;-74
2022/11/06 10:51:31;;;;;;;10.23;3.17;;;13.50;37.30;;;;;;5019659;28;20432;-75
2022/11/06 10:54:02;;;;;;;12.63;3.50;;;13.70;37.10;;;;;;5021012;28;20460;-75
2022/11/06 10:56:41;;;;;;;8.13;3.40;;;13.80;35.90;;;;;;5023983;28;20395;-76
2022/11/06 10:59:07;;;;;;;9.07;3.80;;;13.90;36.50;;;;;;5023140;28;20391;-76
2022/11/06 11:01:33;;;;;;;7.50;3.30;;;13.90;35.90;;;;;;5024524;28;20472;-76
2022/11/06 11:03:58;;;;;;;8.67;3.13;;;13.90;35.10;;;;;;5017726;28;20524;-75
2022/11/06 11:06:24;;;;;;;10.60;3.40;;;13.80;34.80;;;;;;5016384;28;20857;-74
2022/11/06 11:08:50;;;;;;;7.30;2.80;;;13.80;35.00;;;;;;5013645;28;20451;-74
2022/11/06 11:11:22;;;;;;;10.23;3.53;;;13.80;34.90;;;;;;5011936;28;20404;-74
2022/11/06 11:14:00;;;;;;;8.05;3.30;;;13.60;34.60;;;;;;4994202;28;20395;-74
2022/11/06 11:16:27;;;;;;;10.88;3.50;;;13.70;35.00;;;;;;4994838;28;20462;-75
2022/11/06 11:18:53;;;;;;;11.90;2.92;;;13.70;35.40;;;;;;5006560;28;20490;-75
2022/11/06 11:21:18;;;;;;;9.43;3.50;;;13.70;34.90;;;;;;5011956;28;20529;-75
2022/11/06 11:23:45;;;;;;;8.67;3.43;;;13.70;35.70;;;;;;5011627;28;20491;-75
2022/11/06 11:26:24;;;;;;;11.88;3.70;;;13.80;35.20;;;;;;5011410;28;20396;-75
2022/11/06 11:29:10;;;;;;;11.32;3.53;;;13.80;35.40;;;;;;5009540;28;20399;-74
2022/11/06 11:31:36;;;;;;;7.90;3.40;;;13.70;35.00;;;;;;5010270;28;20411;-74
2022/11/06 11:34:15;;;;;;;9.60;3.50;;;13.70;35.40;;;;;;5011365;28;20754;-76
2022/11/06 11:37:20;;;;;;;12.55;3.30;;;13.70;35.20;;;;;;5012466;28;20428;-80
2022/11/06 11:39:46;;;;;;;8.95;4.20;;;13.60;35.40;;;;;;5012723;28;20420;-72
2022/11/06 11:42:23;;;;;;;8.03;4.30;;;13.70;35.80;;;;;;5012107;28;20405;-73
2022/11/06 11:45:07;;;;;;;10.20;4.22;;;13.80;35.60;;;;;;5012271;28;20420;-73
2022/11/06 11:47:34;;;;;;;10.55;4.80;;;13.80;35.80;;;;;;5012105;28;20389;-74
2022/11/06 11:50:25;;;;;;;15.02;6.75;;;13.90;36.20;;;;;;5011938;28;20385;-76
2022/11/06 11:53:17;;;;;;;9.27;4.70;;;14.10;34.50;;;;;;4992291;28;20387;-77
2022/11/06 11:55:46;;;;;;;6.57;3.70;;;14.10;34.00;;;;;;4993143;28;20768;-76
2022/11/06 11:58:22;;;;;;;7.53;3.85;;;14.10;34.10;;;;;;4992563;28;20383;-77
2022/11/06 12:01:01;;;;;;;13.43;4.40;;;14.30;34.30;;;;;;5002570;28;20508;-77
2022/11/06 12:03:48;;;;;;;12.07;5.00;;;14.30;33.90;;;;;;5012101;28;20396;-76
2022/11/06 12:06:17;;;;;;;7.85;4.07;;;14.40;33.90;;;;;;5011779;28;20719;-77
2022/11/06 12:08:52;;;;;;;9.75;3.80;;;14.40;34.00;;;;;;5012338;28;20389;-76
2022/11/06 12:11:29;;;;;;;11.93;3.97;;;14.40;33.20;;;;;;5011692;28;20428;-76
2022/11/06 12:14:27;;;;;;;10.95;4.13;;;14.50;33.40;;;;;;5011752;28;20711;-76
2022/11/06 12:17:08;;;;;;;10.43;4.32;;;14.50;33.10;;;;;;5011692;28;20380;-76
2022/11/06 12:19:37;;;;;;;9.60;4.20;;;14.50;32.60;;;;;;5052997;23;20435;-72
2022/11/06 12:22:12;;;;;;;12.05;4.10;;;14.40;32.80;;;;;;5045121;28;20474;-72
2022/11/06 12:24:53;;;;;;;8.13;4.15;;;14.20;33.10;;;;;;5063282;28;20513;-72
2022/11/06 12:27:37;;;;;;;9.18;3.75;;;14.10;34.20;;;;;;5043591;28;20859;-73
2022/11/06 12:30:15;;;;;;;9.18;3.83;;;14.00;33.60;;;;;;5046019;28;20420;-73
2022/11/06 12:33:02;;;;;;;10.30;3.80;;;13.90;34.10;;;;;;5040040;28;20387;-71
2022/11/06 12:35:34;;;;;;;9.98;4.00;;;13.80;34.10;;;;;;5038168;28;20459;-73
2022/11/06 12:38:09;;;;;;;7.90;3.90;;;13.70;35.10;;;;;;5027339;28;20385;-72
2022/11/06 12:40:40;;;;;;;11.48;3.53;;;13.80;33.90;;;;;;5018893;28;20422;-73
2022/11/06 12:43:15;;;;;;;8.30;3.80;;;13.80;33.90;;;;;;5038050;28;20386;-75
2022/11/06 12:46:02;;;;;;;9.45;4.20;;;13.80;34.00;;;;;;5038682;28;20437;-71
2022/11/06 12:48:53;;;;;;;6.80;3.97;;;13.80;33.30;;;;;;5038189;28;20374;-75
2022/11/06 12:51:28;;;;;;;13.30;5.40;;;13.70;34.20;;;;;;5039428;28;20379;-73
2022/11/06 12:54:18;;;;;;;11.52;4.70;;;13.70;34.80;;;;;;5038278;28;20394;-73
2022/11/06 12:57:02;;;;;;;10.60;4.50;;;13.70;33.90;;;;;;5038187;28;20682;-74
2022/11/06 13:00:05;;;;;;;11.13;3.93;;;13.70;35.20;;;;;;5039435;28;20743;-74
2022/11/06 13:02:43;;;;;;;8.60;3.83;;;13.60;34.10;;;;;;5041321;28;20486;-73
2022/11/06 13:05:38;;;;;;;10.30;4.00;;;13.60;34.00;;;;;;5043545;28;20383;-74
2022/11/06 13:08:33;;;;;;;10.32;4.45;;;13.80;33.10;;;;;;4992906;28;20444;-74
2022/11/06 13:11:07;;;;;;;10.65;4.10;;;14.10;32.60;;;;;;5038082;28;20379;-73
2022/11/06 13:13:56;;;;;;;10.63;4.40;;;14.20;31.70;;;;;;5039219;28;20383;-72
2022/11/06 13:17:00;;;;;;;13.07;4.00;;;14.20;31.60;;;;;;5040396;28;20386;-74
2022/11/06 13:19:33;;;;;;;7.82;3.90;;;14.10;31.90;;;;;;5018645;28;20431;-73
2022/11/06 13:22:19;;;;;;;8.65;4.00;;;14.20;31.80;;;;;;5042280;28;20411;-74